sensor_id;sensor_type;location;lat;lon;timestamp;P1;durP1;ratioP1;P2;durP2;ratioP2
58621;SDS011;44389;51.578;5.456;2022-07-18T00:01:44;18.08;;;7.13;;
58621;SDS011;44389;51.578;5.456;2022-07-18T00:04:09;13.32;;;6.93;;
58621;SDS011;44389;51.578;5.456;2022-07-18T00:06:34;14.13;;;6.32;;
58621;SDS011;44389;51.578;5.456;2022-07-18T00:09:00;15.30;;;6.50;;
58621;SDS011;44389;51.578;5.456;2022-07-18T00:11:25;10.23;;;6.25;;
58621;SDS011;44389;51.578;5.456;2022-07-18T00:13:51;13.60;;;6.80;;
58621;SDS011;44389;51.578;5.456;2022-07-18T00:16:16;16.10;;;7.28;;
58621;SDS011;44389;51.578;5.456;2022-07-18T00:18:42;15.05;;;7.30;;
58621;SDS011;44389;51.578;5.456;2022-07-18T00:21:08;16.33;;;6.78;;
58621;SDS011;44389;51.578;5.456;2022-07-18T00:23:34;19.90;;;7.63;;
58621;SDS011;44389;51.578;5.456;2022-07-18T00:25:59;12.65;;;7.32;;
58621;SDS011;44389;51.578;5.456;2022-07-18T00:28:24;12.75;;;7.50;;
58621;SDS011;44389;51.578;5.456;2022-07-18T00:30:50;11.95;;;7.07;;
58621;SDS011;44389;51.578;5.456;2022-07-18T00:33:15;17.50;;;7.40;;
58621;SDS011;44389;51.578;5.456;2022-07-18T00:35:41;15.48;;;7.50;;
58621;SDS011;44389;51.578;5.456;2022-07-18T00:38:06;16.63;;;7.50;;
58621;SDS011;44389;51.578;5.456;2022-07-18T00:40:31;12.77;;;7.72;;
58621;SDS011;44389;51.578;5.456;2022-07-18T00:42:57;15.20;;;7.38;;
58621;SDS011;44389;51.578;5.456;2022-07-18T00:45:23;21.63;;;8.77;;
58621;SDS011;44389;51.578;5.456;2022-07-18T00:47:48;14.27;;;7.68;;
58621;SDS011;44389;51.578;5.456;2022-07-18T00:50:16;16.38;;;7.07;;
58621;SDS011;44389;51.578;5.456;2022-07-18T00:52:45;14.65;;;8.20;;
58621;SDS011;44389;51.578;5.456;2022-07-18T00:55:11;13.18;;;8.10;;
58621;SDS011;44389;51.578;5.456;2022-07-18T00:57:37;16.85;;;8.48;;
58621;SDS011;44389;51.578;5.456;2022-07-18T01:00:05;12.85;;;8.30;;
58621;SDS011;44389;51.578;5.456;2022-07-18T01:02:54;14.48;;;7.68;;
58621;SDS011;44389;51.578;5.456;2022-07-18T01:05:20;18.63;;;7.75;;
58621;SDS011;44389;51.578;5.456;2022-07-18T01:07:45;13.98;;;7.57;;
58621;SDS011;44389;51.578;5.456;2022-07-18T01:10:10;16.73;;;8.13;;
58621;SDS011;44389;51.578;5.456;2022-07-18T01:12:36;14.73;;;7.50;;
58621;SDS011;44389;51.578;5.456;2022-07-18T01:15:02;14.75;;;8.00;;
58621;SDS011;44389;51.578;5.456;2022-07-18T01:17:28;14.52;;;8.35;;
58621;SDS011;44389;51.578;5.456;2022-07-18T01:19:54;17.05;;;8.48;;
58621;SDS011;44389;51.578;5.456;2022-07-18T01:22:19;13.95;;;7.88;;
58621;SDS011;44389;51.578;5.456;2022-07-18T01:24:45;14.25;;;8.23;;
58621;SDS011;44389;51.578;5.456;2022-07-18T01:27:17;14.70;;;7.95;;
58621;SDS011;44389;51.578;5.456;2022-07-18T01:29:45;14.13;;;7.43;;
58621;SDS011;44389;51.578;5.456;2022-07-18T01:32:11;20.65;;;8.23;;
58621;SDS011;44389;51.578;5.456;2022-07-18T01:34:38;19.77;;;8.68;;
58621;SDS011;44389;51.578;5.456;2022-07-18T01:37:04;13.00;;;7.63;;
58621;SDS011;44389;51.578;5.456;2022-07-18T01:39:30;19.77;;;8.60;;
58621;SDS011;44389;51.578;5.456;2022-07-18T01:41:59;17.60;;;8.32;;
58621;SDS011;44389;51.578;5.456;2022-07-18T01:44:27;20.48;;;9.02;;
58621;SDS011;44389;51.578;5.456;2022-07-18T01:46:53;17.25;;;8.80;;
58621;SDS011;44389;51.578;5.456;2022-07-18T01:49:18;13.48;;;8.75;;
58621;SDS011;44389;51.578;5.456;2022-07-18T01:51:45;14.63;;;8.57;;
58621;SDS011;44389;51.578;5.456;2022-07-18T01:54:11;17.60;;;8.73;;
58621;SDS011;44389;51.578;5.456;2022-07-18T01:56:36;19.58;;;9.60;;
58621;SDS011;44389;51.578;5.456;2022-07-18T01:59:02;17.25;;;9.68;;
58621;SDS011;44389;51.578;5.456;2022-07-18T02:01:27;15.13;;;8.70;;
58621;SDS011;44389;51.578;5.456;2022-07-18T02:03:53;16.50;;;8.90;;
58621;SDS011;44389;51.578;5.456;2022-07-18T02:06:18;16.30;;;9.38;;
58621;SDS011;44389;51.578;5.456;2022-07-18T02:08:43;17.38;;;9.80;;
58621;SDS011;44389;51.578;5.456;2022-07-18T02:11:08;15.88;;;9.35;;
58621;SDS011;44389;51.578;5.456;2022-07-18T02:13:34;16.92;;;8.88;;
58621;SDS011;44389;51.578;5.456;2022-07-18T02:16:00;33.10;;;9.75;;
58621;SDS011;44389;51.578;5.456;2022-07-18T02:18:25;17.40;;;9.60;;
58621;SDS011;44389;51.578;5.456;2022-07-18T02:20:51;14.45;;;9.90;;
58621;SDS011;44389;51.578;5.456;2022-07-18T02:23:16;12.52;;;8.52;;
58621;SDS011;44389;51.578;5.456;2022-07-18T02:25:42;16.08;;;8.98;;
58621;SDS011;44389;51.578;5.456;2022-07-18T02:28:07;17.65;;;9.65;;
58621;SDS011;44389;51.578;5.456;2022-07-18T02:30:32;19.33;;;9.50;;
58621;SDS011;44389;51.578;5.456;2022-07-18T02:32:58;13.90;;;9.18;;
58621;SDS011;44389;51.578;5.456;2022-07-18T02:35:23;17.30;;;10.05;;
58621;SDS011;44389;51.578;5.456;2022-07-18T02:37:49;20.77;;;10.38;;
58621;SDS011;44389;51.578;5.456;2022-07-18T02:40:14;18.33;;;11.52;;
58621;SDS011;44389;51.578;5.456;2022-07-18T02:42:39;19.52;;;11.95;;
58621;SDS011;44389;51.578;5.456;2022-07-18T02:45:05;20.77;;;11.43;;
58621;SDS011;44389;51.578;5.456;2022-07-18T02:47:32;18.87;;;11.23;;
58621;SDS011;44389;51.578;5.456;2022-07-18T02:49:57;18.42;;;11.02;;
58621;SDS011;44389;51.578;5.456;2022-07-18T02:52:22;22.75;;;12.30;;
58621;SDS011;44389;51.578;5.456;2022-07-18T02:54:48;21.10;;;10.90;;
58621;SDS011;44389;51.578;5.456;2022-07-18T02:57:13;21.67;;;11.70;;
58621;SDS011;44389;51.578;5.456;2022-07-18T02:59:38;21.17;;;12.45;;
58621;SDS011;44389;51.578;5.456;2022-07-18T03:02:04;22.52;;;11.50;;
58621;SDS011;44389;51.578;5.456;2022-07-18T03:04:30;23.92;;;12.38;;
58621;SDS011;44389;51.578;5.456;2022-07-18T03:06:56;23.75;;;12.30;;
58621;SDS011;44389;51.578;5.456;2022-07-18T03:09:21;18.42;;;11.75;;
58621;SDS011;44389;51.578;5.456;2022-07-18T03:11:47;18.83;;;11.55;;
58621;SDS011;44389;51.578;5.456;2022-07-18T03:14:13;17.58;;;10.70;;
58621;SDS011;44389;51.578;5.456;2022-07-18T03:16:39;22.08;;;11.48;;
58621;SDS011;44389;51.578;5.456;2022-07-18T03:19:04;20.40;;;11.70;;
58621;SDS011;44389;51.578;5.456;2022-07-18T03:21:29;24.40;;;12.57;;
58621;SDS011;44389;51.578;5.456;2022-07-18T03:23:55;23.48;;;12.00;;
58621;SDS011;44389;51.578;5.456;2022-07-18T03:26:21;20.45;;;11.27;;
58621;SDS011;44389;51.578;5.456;2022-07-18T03:28:46;20.05;;;11.52;;
58621;SDS011;44389;51.578;5.456;2022-07-18T03:31:11;22.05;;;12.00;;
58621;SDS011;44389;51.578;5.456;2022-07-18T03:33:37;25.08;;;13.18;;
58621;SDS011;44389;51.578;5.456;2022-07-18T03:36:03;27.55;;;14.00;;
58621;SDS011;44389;51.578;5.456;2022-07-18T03:38:29;29.38;;;14.77;;
58621;SDS011;44389;51.578;5.456;2022-07-18T03:40:54;24.40;;;14.05;;
58621;SDS011;44389;51.578;5.456;2022-07-18T03:43:19;25.83;;;13.90;;
58621;SDS011;44389;51.578;5.456;2022-07-18T03:45:45;22.83;;;14.77;;
58621;SDS011;44389;51.578;5.456;2022-07-18T03:48:11;25.13;;;14.73;;
58621;SDS011;44389;51.578;5.456;2022-07-18T03:50:37;30.80;;;14.93;;
58621;SDS011;44389;51.578;5.456;2022-07-18T03:53:02;23.77;;;14.25;;
58621;SDS011;44389;51.578;5.456;2022-07-18T03:55:27;22.30;;;13.27;;
58621;SDS011;44389;51.578;5.456;2022-07-18T03:57:53;24.52;;;15.10;;
58621;SDS011;44389;51.578;5.456;2022-07-18T04:00:18;23.88;;;14.05;;
58621;SDS011;44389;51.578;5.456;2022-07-18T04:02:44;34.33;;;15.00;;
58621;SDS011;44389;51.578;5.456;2022-07-18T04:05:12;26.65;;;14.18;;
58621;SDS011;44389;51.578;5.456;2022-07-18T04:07:39;26.95;;;14.52;;
58621;SDS011;44389;51.578;5.456;2022-07-18T04:10:05;23.23;;;13.73;;
58621;SDS011;44389;51.578;5.456;2022-07-18T04:12:32;23.05;;;12.90;;
58621;SDS011;44389;51.578;5.456;2022-07-18T04:14:57;24.10;;;13.45;;
58621;SDS011;44389;51.578;5.456;2022-07-18T04:17:23;29.38;;;14.48;;
58621;SDS011;44389;51.578;5.456;2022-07-18T04:19:48;20.33;;;13.52;;
58621;SDS011;44389;51.578;5.456;2022-07-18T04:22:14;26.75;;;14.55;;
58621;SDS011;44389;51.578;5.456;2022-07-18T04:24:39;25.00;;;13.68;;
58621;SDS011;44389;51.578;5.456;2022-07-18T04:27:05;26.05;;;13.75;;
58621;SDS011;44389;51.578;5.456;2022-07-18T04:29:30;26.15;;;14.30;;
58621;SDS011;44389;51.578;5.456;2022-07-18T04:31:57;27.70;;;13.65;;
58621;SDS011;44389;51.578;5.456;2022-07-18T04:34:22;23.40;;;14.10;;
58621;SDS011;44389;51.578;5.456;2022-07-18T04:36:48;26.10;;;15.10;;
58621;SDS011;44389;51.578;5.456;2022-07-18T04:39:13;26.25;;;15.55;;
58621;SDS011;44389;51.578;5.456;2022-07-18T04:41:38;27.13;;;15.20;;
58621;SDS011;44389;51.578;5.456;2022-07-18T04:44:04;26.42;;;16.52;;
58621;SDS011;44389;51.578;5.456;2022-07-18T04:46:29;29.35;;;15.68;;
58621;SDS011;44389;51.578;5.456;2022-07-18T04:48:54;30.35;;;16.27;;
58621;SDS011;44389;51.578;5.456;2022-07-18T04:51:20;26.23;;;16.75;;
58621;SDS011;44389;51.578;5.456;2022-07-18T04:53:45;30.58;;;16.98;;
58621;SDS011;44389;51.578;5.456;2022-07-18T04:56:10;27.02;;;16.85;;
58621;SDS011;44389;51.578;5.456;2022-07-18T04:58:36;26.75;;;16.38;;
58621;SDS011;44389;51.578;5.456;2022-07-18T05:01:01;30.67;;;16.90;;
58621;SDS011;44389;51.578;5.456;2022-07-18T05:03:26;27.85;;;17.23;;
58621;SDS011;44389;51.578;5.456;2022-07-18T05:05:51;29.33;;;17.23;;
58621;SDS011;44389;51.578;5.456;2022-07-18T05:08:17;31.80;;;16.77;;
58621;SDS011;44389;51.578;5.456;2022-07-18T05:10:43;33.55;;;15.63;;
58621;SDS011;44389;51.578;5.456;2022-07-18T05:13:08;31.08;;;16.65;;
58621;SDS011;44389;51.578;5.456;2022-07-18T05:15:34;30.23;;;17.02;;
58621;SDS011;44389;51.578;5.456;2022-07-18T05:17:59;29.77;;;17.48;;
58621;SDS011;44389;51.578;5.456;2022-07-18T05:20:25;35.28;;;17.42;;
58621;SDS011;44389;51.578;5.456;2022-07-18T05:22:51;31.48;;;17.10;;
58621;SDS011;44389;51.578;5.456;2022-07-18T05:25:18;33.72;;;18.27;;
58621;SDS011;44389;51.578;5.456;2022-07-18T05:27:44;39.15;;;17.67;;
58621;SDS011;44389;51.578;5.456;2022-07-18T05:30:10;30.63;;;17.17;;
58621;SDS011;44389;51.578;5.456;2022-07-18T05:32:37;28.15;;;17.15;;
58621;SDS011;44389;51.578;5.456;2022-07-18T05:35:04;27.73;;;17.73;;
58621;SDS011;44389;51.578;5.456;2022-07-18T05:37:30;29.75;;;18.08;;
58621;SDS011;44389;51.578;5.456;2022-07-18T05:39:55;32.70;;;17.50;;
58621;SDS011;44389;51.578;5.456;2022-07-18T05:42:20;28.10;;;16.30;;
58621;SDS011;44389;51.578;5.456;2022-07-18T05:44:46;28.33;;;16.67;;
58621;SDS011;44389;51.578;5.456;2022-07-18T05:47:11;32.13;;;17.42;;
58621;SDS011;44389;51.578;5.456;2022-07-18T05:49:38;29.50;;;15.82;;
58621;SDS011;44389;51.578;5.456;2022-07-18T05:52:03;31.23;;;15.80;;
58621;SDS011;44389;51.578;5.456;2022-07-18T05:54:29;26.48;;;14.57;;
58621;SDS011;44389;51.578;5.456;2022-07-18T05:56:54;25.48;;;14.50;;
58621;SDS011;44389;51.578;5.456;2022-07-18T05:59:20;23.85;;;14.77;;
58621;SDS011;44389;51.578;5.456;2022-07-18T06:01:45;29.50;;;13.75;;
58621;SDS011;44389;51.578;5.456;2022-07-18T06:04:11;26.63;;;15.43;;
58621;SDS011;44389;51.578;5.456;2022-07-18T06:06:36;31.38;;;14.95;;
58621;SDS011;44389;51.578;5.456;2022-07-18T06:09:02;29.77;;;14.60;;
58621;SDS011;44389;51.578;5.456;2022-07-18T06:11:28;22.65;;;13.95;;
58621;SDS011;44389;51.578;5.456;2022-07-18T06:13:54;27.45;;;14.07;;
58621;SDS011;44389;51.578;5.456;2022-07-18T06:16:19;26.42;;;13.23;;
58621;SDS011;44389;51.578;5.456;2022-07-18T06:18:44;29.00;;;13.23;;
58621;SDS011;44389;51.578;5.456;2022-07-18T06:21:10;30.38;;;12.43;;
58621;SDS011;44389;51.578;5.456;2022-07-18T06:23:35;26.95;;;13.73;;
58621;SDS011;44389;51.578;5.456;2022-07-18T06:26:01;25.55;;;13.45;;
58621;SDS011;44389;51.578;5.456;2022-07-18T06:28:26;28.77;;;13.90;;
58621;SDS011;44389;51.578;5.456;2022-07-18T06:30:53;30.45;;;13.07;;
58621;SDS011;44389;51.578;5.456;2022-07-18T06:33:18;24.15;;;12.63;;
58621;SDS011;44389;51.578;5.456;2022-07-18T06:35:44;30.92;;;12.80;;
58621;SDS011;44389;51.578;5.456;2022-07-18T06:38:09;23.77;;;12.93;;
58621;SDS011;44389;51.578;5.456;2022-07-18T06:40:34;35.00;;;12.98;;
58621;SDS011;44389;51.578;5.456;2022-07-18T06:43:00;24.35;;;12.40;;
58621;SDS011;44389;51.578;5.456;2022-07-18T06:45:25;30.83;;;12.90;;
58621;SDS011;44389;51.578;5.456;2022-07-18T06:47:50;19.80;;;12.68;;
58621;SDS011;44389;51.578;5.456;2022-07-18T06:50:16;25.73;;;11.90;;
58621;SDS011;44389;51.578;5.456;2022-07-18T06:52:42;21.73;;;12.10;;
58621;SDS011;44389;51.578;5.456;2022-07-18T06:55:09;24.53;;;12.10;;
58621;SDS011;44389;51.578;5.456;2022-07-18T06:57:35;27.35;;;11.75;;
58621;SDS011;44389;51.578;5.456;2022-07-18T07:00:00;29.10;;;12.23;;
58621;SDS011;44389;51.578;5.456;2022-07-18T07:02:26;26.50;;;12.27;;
58621;SDS011;44389;51.578;5.456;2022-07-18T07:04:51;27.27;;;12.48;;
58621;SDS011;44389;51.578;5.456;2022-07-18T07:07:16;27.38;;;12.70;;
58621;SDS011;44389;51.578;5.456;2022-07-18T07:09:42;21.85;;;13.00;;
58621;SDS011;44389;51.578;5.456;2022-07-18T07:12:07;27.02;;;13.05;;
58621;SDS011;44389;51.578;5.456;2022-07-18T07:14:32;32.05;;;12.82;;
58621;SDS011;44389;51.578;5.456;2022-07-18T07:16:57;26.10;;;12.45;;
58621;SDS011;44389;51.578;5.456;2022-07-18T07:19:23;27.33;;;13.05;;
58621;SDS011;44389;51.578;5.456;2022-07-18T07:21:48;33.67;;;14.07;;
58621;SDS011;44389;51.578;5.456;2022-07-18T07:24:13;25.45;;;13.43;;
58621;SDS011;44389;51.578;5.456;2022-07-18T07:26:39;27.75;;;13.30;;
58621;SDS011;44389;51.578;5.456;2022-07-18T07:29:04;30.33;;;12.27;;
58621;SDS011;44389;51.578;5.456;2022-07-18T07:31:29;25.92;;;11.65;;
58621;SDS011;44389;51.578;5.456;2022-07-18T07:33:55;28.35;;;12.20;;
58621;SDS011;44389;51.578;5.456;2022-07-18T07:36:20;22.98;;;10.10;;
58621;SDS011;44389;51.578;5.456;2022-07-18T07:38:46;24.67;;;10.48;;
58621;SDS011;44389;51.578;5.456;2022-07-18T07:41:11;20.88;;;10.27;;
58621;SDS011;44389;51.578;5.456;2022-07-18T07:43:38;34.60;;;9.68;;
58621;SDS011;44389;51.578;5.456;2022-07-18T07:46:03;18.48;;;8.73;;
58621;SDS011;44389;51.578;5.456;2022-07-18T07:48:29;21.33;;;8.90;;
58621;SDS011;44389;51.578;5.456;2022-07-18T07:50:54;25.40;;;9.02;;
58621;SDS011;44389;51.578;5.456;2022-07-18T07:53:19;24.38;;;8.75;;
58621;SDS011;44389;51.578;5.456;2022-07-18T07:55:45;20.10;;;7.53;;
58621;SDS011;44389;51.578;5.456;2022-07-18T07:58:10;18.55;;;7.57;;
58621;SDS011;44389;51.578;5.456;2022-07-18T08:00:36;20.70;;;7.90;;
58621;SDS011;44389;51.578;5.456;2022-07-18T08:03:03;16.83;;;6.43;;
58621;SDS011;44389;51.578;5.456;2022-07-18T08:07:57;17.20;;;5.90;;
58621;SDS011;44389;51.578;5.456;2022-07-18T08:10:23;21.15;;;5.90;;
58621;SDS011;44389;51.578;5.456;2022-07-18T08:12:49;15.35;;;4.97;;
58621;SDS011;44389;51.578;5.456;2022-07-18T08:15:14;10.93;;;4.75;;
58621;SDS011;44389;51.578;5.456;2022-07-18T08:17:40;10.50;;;3.72;;
58621;SDS011;44389;51.578;5.456;2022-07-18T08:20:06;12.75;;;4.10;;
58621;SDS011;44389;51.578;5.456;2022-07-18T08:22:32;9.27;;;3.80;;
58621;SDS011;44389;51.578;5.456;2022-07-18T08:24:57;12.30;;;3.35;;
58621;SDS011;44389;51.578;5.456;2022-07-18T08:27:23;8.38;;;3.45;;
58621;SDS011;44389;51.578;5.456;2022-07-18T08:29:48;10.07;;;3.50;;
58621;SDS011;44389;51.578;5.456;2022-07-18T08:32:13;10.25;;;3.33;;
58621;SDS011;44389;51.578;5.456;2022-07-18T08:34:39;6.38;;;2.72;;
58621;SDS011;44389;51.578;5.456;2022-07-18T08:37:04;10.65;;;3.05;;
58621;SDS011;44389;51.578;5.456;2022-07-18T08:39:30;12.40;;;3.28;;
58621;SDS011;44389;51.578;5.456;2022-07-18T08:41:55;9.75;;;2.78;;
58621;SDS011;44389;51.578;5.456;2022-07-18T08:44:22;8.50;;;3.00;;
58621;SDS011;44389;51.578;5.456;2022-07-18T08:46:49;11.15;;;3.00;;
58621;SDS011;44389;51.578;5.456;2022-07-18T08:49:15;12.20;;;2.80;;
58621;SDS011;44389;51.578;5.456;2022-07-18T08:51:41;8.25;;;2.80;;
58621;SDS011;44389;51.578;5.456;2022-07-18T08:54:07;11.73;;;3.13;;
58621;SDS011;44389;51.578;5.456;2022-07-18T08:56:33;13.05;;;2.80;;
58621;SDS011;44389;51.578;5.456;2022-07-18T08:58:59;10.00;;;2.95;;
58621;SDS011;44389;51.578;5.456;2022-07-18T09:01:27;9.25;;;2.50;;
58621;SDS011;44389;51.578;5.456;2022-07-18T09:03:52;13.38;;;2.83;;
58621;SDS011;44389;51.578;5.456;2022-07-18T09:06:41;9.90;;;3.00;;
58621;SDS011;44389;51.578;5.456;2022-07-18T09:09:12;8.82;;;2.80;;
58621;SDS011;44389;51.578;5.456;2022-07-18T09:11:48;8.80;;;2.40;;
58621;SDS011;44389;51.578;5.456;2022-07-18T09:16:59;7.20;;;2.58;;
58621;SDS011;44389;51.578;5.456;2022-07-18T09:19:36;7.05;;;2.40;;
58621;SDS011;44389;51.578;5.456;2022-07-18T09:24:53;10.02;;;2.88;;
58621;SDS011;44389;51.578;5.456;2022-07-18T09:30:06;8.82;;;3.00;;
58621;SDS011;44389;51.578;5.456;2022-07-18T09:32:33;8.30;;;2.28;;
58621;SDS011;44389;51.578;5.456;2022-07-18T09:37:31;11.40;;;2.53;;
58621;SDS011;44389;51.578;5.456;2022-07-18T09:40:13;7.63;;;2.75;;
58621;SDS011;44389;51.578;5.456;2022-07-18T09:42:39;8.35;;;2.83;;
58621;SDS011;44389;51.578;5.456;2022-07-18T09:45:04;9.50;;;2.60;;
58621;SDS011;44389;51.578;5.456;2022-07-18T09:47:30;6.15;;;2.65;;
58621;SDS011;44389;51.578;5.456;2022-07-18T09:49:55;10.07;;;2.50;;
58621;SDS011;44389;51.578;5.456;2022-07-18T09:52:21;7.43;;;2.70;;
58621;SDS011;44389;51.578;5.456;2022-07-18T09:54:46;9.35;;;2.70;;
58621;SDS011;44389;51.578;5.456;2022-07-18T09:57:24;6.15;;;2.45;;
58621;SDS011;44389;51.578;5.456;2022-07-18T09:59:52;9.25;;;2.67;;
58621;SDS011;44389;51.578;5.456;2022-07-18T10:02:17;6.97;;;2.30;;
58621;SDS011;44389;51.578;5.456;2022-07-18T10:04:43;5.88;;;2.33;;
58621;SDS011;44389;51.578;5.456;2022-07-18T10:07:09;9.20;;;2.85;;
58621;SDS011;44389;51.578;5.456;2022-07-18T10:09:34;8.30;;;2.90;;
58621;SDS011;44389;51.578;5.456;2022-07-18T10:12:03;7.78;;;2.72;;
58621;SDS011;44389;51.578;5.456;2022-07-18T10:14:29;9.70;;;3.00;;
58621;SDS011;44389;51.578;5.456;2022-07-18T10:16:55;9.95;;;2.88;;
58621;SDS011;44389;51.578;5.456;2022-07-18T10:19:21;11.80;;;2.50;;
58621;SDS011;44389;51.578;5.456;2022-07-18T10:21:47;12.75;;;3.15;;
58621;SDS011;44389;51.578;5.456;2022-07-18T10:24:16;11.60;;;2.85;;
58621;SDS011;44389;51.578;5.456;2022-07-18T10:26:42;14.55;;;2.88;;
58621;SDS011;44389;51.578;5.456;2022-07-18T10:29:08;7.90;;;3.07;;
58621;SDS011;44389;51.578;5.456;2022-07-18T10:31:38;7.90;;;2.30;;
58621;SDS011;44389;51.578;5.456;2022-07-18T10:36:32;10.65;;;3.30;;
58621;SDS011;44389;51.578;5.456;2022-07-18T10:41:31;9.73;;;2.70;;
58621;SDS011;44389;51.578;5.456;2022-07-18T10:43:57;7.53;;;2.80;;
58621;SDS011;44389;51.578;5.456;2022-07-18T10:46:22;10.67;;;2.40;;
58621;SDS011;44389;51.578;5.456;2022-07-18T10:48:51;9.10;;;2.50;;
58621;SDS011;44389;51.578;5.456;2022-07-18T10:51:18;12.77;;;3.45;;
58621;SDS011;44389;51.578;5.456;2022-07-18T10:58:54;16.27;;;2.83;;
58621;SDS011;44389;51.578;5.456;2022-07-18T11:01:20;10.50;;;2.85;;
58621;SDS011;44389;51.578;5.456;2022-07-18T11:03:47;13.18;;;2.60;;
58621;SDS011;44389;51.578;5.456;2022-07-18T11:06:14;9.60;;;2.60;;
58621;SDS011;44389;51.578;5.456;2022-07-18T11:08:39;7.57;;;3.00;;
58621;SDS011;44389;51.578;5.456;2022-07-18T11:11:05;12.80;;;2.33;;
58621;SDS011;44389;51.578;5.456;2022-07-18T11:13:40;7.78;;;2.42;;
58621;SDS011;44389;51.578;5.456;2022-07-18T11:16:14;12.00;;;3.20;;
58621;SDS011;44389;51.578;5.456;2022-07-18T11:21:19;10.83;;;2.40;;
58621;SDS011;44389;51.578;5.456;2022-07-18T11:23:48;9.30;;;2.42;;
58621;SDS011;44389;51.578;5.456;2022-07-18T11:26:15;10.30;;;2.75;;
58621;SDS011;44389;51.578;5.456;2022-07-18T11:28:41;11.77;;;2.60;;
58621;SDS011;44389;51.578;5.456;2022-07-18T11:31:08;6.67;;;2.33;;
58621;SDS011;44389;51.578;5.456;2022-07-18T11:33:37;10.45;;;2.88;;
58621;SDS011;44389;51.578;5.456;2022-07-18T11:36:05;7.60;;;2.80;;
58621;SDS011;44389;51.578;5.456;2022-07-18T11:38:31;7.85;;;2.33;;
58621;SDS011;44389;51.578;5.456;2022-07-18T11:40:57;7.33;;;2.27;;
58621;SDS011;44389;51.578;5.456;2022-07-18T11:43:26;11.13;;;2.67;;
58621;SDS011;44389;51.578;5.456;2022-07-18T11:45:58;5.05;;;2.40;;
58621;SDS011;44389;51.578;5.456;2022-07-18T11:48:34;8.27;;;2.33;;
58621;SDS011;44389;51.578;5.456;2022-07-18T11:51:01;6.50;;;2.30;;
58621;SDS011;44389;51.578;5.456;2022-07-18T11:53:28;4.97;;;2.20;;
58621;SDS011;44389;51.578;5.456;2022-07-18T11:55:54;8.80;;;2.22;;
58621;SDS011;44389;51.578;5.456;2022-07-18T11:58:20;7.53;;;2.10;;
58621;SDS011;44389;51.578;5.456;2022-07-18T12:00:47;8.93;;;2.60;;
58621;SDS011;44389;51.578;5.456;2022-07-18T12:03:17;9.98;;;2.42;;
58621;SDS011;44389;51.578;5.456;2022-07-18T12:05:49;5.30;;;1.98;;
58621;SDS011;44389;51.578;5.456;2022-07-18T12:11:09;6.15;;;2.20;;
58621;SDS011;44389;51.578;5.456;2022-07-18T12:13:46;8.77;;;2.50;;
58621;SDS011;44389;51.578;5.456;2022-07-18T12:16:27;8.43;;;2.58;;
58621;SDS011;44389;51.578;5.456;2022-07-18T12:18:53;7.07;;;2.65;;
58621;SDS011;44389;51.578;5.456;2022-07-18T12:21:20;6.28;;;2.10;;
58621;SDS011;44389;51.578;5.456;2022-07-18T12:23:46;5.88;;;2.30;;
58621;SDS011;44389;51.578;5.456;2022-07-18T12:26:27;7.43;;;2.00;;
58621;SDS011;44389;51.578;5.456;2022-07-18T12:29:09;8.68;;;2.40;;
58621;SDS011;44389;51.578;5.456;2022-07-18T12:31:38;10.30;;;2.22;;
58621;SDS011;44389;51.578;5.456;2022-07-18T12:34:09;6.30;;;2.08;;
58621;SDS011;44389;51.578;5.456;2022-07-18T12:36:49;11.80;;;2.50;;
58621;SDS011;44389;51.578;5.456;2022-07-18T12:42:10;8.02;;;2.50;;
58621;SDS011;44389;51.578;5.456;2022-07-18T12:44:52;7.07;;;2.55;;
58621;SDS011;44389;51.578;5.456;2022-07-18T12:47:18;7.57;;;2.40;;
58621;SDS011;44389;51.578;5.456;2022-07-18T12:49:43;9.10;;;2.80;;
58621;SDS011;44389;51.578;5.456;2022-07-18T12:52:08;14.13;;;2.67;;
58621;SDS011;44389;51.578;5.456;2022-07-18T12:54:34;7.77;;;2.73;;
58621;SDS011;44389;51.578;5.456;2022-07-18T12:56:59;6.70;;;2.53;;
58621;SDS011;44389;51.578;5.456;2022-07-18T12:59:24;9.30;;;2.40;;
58621;SDS011;44389;51.578;5.456;2022-07-18T13:01:49;3.20;;;1.90;;
58621;SDS011;44389;51.578;5.456;2022-07-18T13:04:15;5.70;;;2.13;;
58621;SDS011;44389;51.578;5.456;2022-07-18T13:06:40;7.57;;;2.17;;
58621;SDS011;44389;51.578;5.456;2022-07-18T13:09:05;4.43;;;2.23;;
58621;SDS011;44389;51.578;5.456;2022-07-18T13:11:31;7.03;;;2.50;;
58621;SDS011;44389;51.578;5.456;2022-07-18T13:13:56;5.10;;;2.38;;
58621;SDS011;44389;51.578;5.456;2022-07-18T13:16:22;11.35;;;2.70;;
58621;SDS011;44389;51.578;5.456;2022-07-18T13:18:48;7.63;;;2.13;;
58621;SDS011;44389;51.578;5.456;2022-07-18T13:21:14;6.97;;;2.30;;
58621;SDS011;44389;51.578;5.456;2022-07-18T13:23:41;9.60;;;2.00;;
58621;SDS011;44389;51.578;5.456;2022-07-18T13:26:07;7.00;;;2.50;;
58621;SDS011;44389;51.578;5.456;2022-07-18T13:28:32;10.07;;;2.50;;
58621;SDS011;44389;51.578;5.456;2022-07-18T13:30:57;5.40;;;2.13;;
58621;SDS011;44389;51.578;5.456;2022-07-18T13:33:23;11.57;;;2.47;;
58621;SDS011;44389;51.578;5.456;2022-07-18T13:35:48;6.93;;;2.43;;
58621;SDS011;44389;51.578;5.456;2022-07-18T13:38:13;11.50;;;2.53;;
58621;SDS011;44389;51.578;5.456;2022-07-18T13:40:39;8.57;;;2.40;;
58621;SDS011;44389;51.578;5.456;2022-07-18T13:43:04;6.83;;;2.57;;
58621;SDS011;44389;51.578;5.456;2022-07-18T13:45:29;8.23;;;2.30;;
58621;SDS011;44389;51.578;5.456;2022-07-18T13:47:54;8.17;;;2.50;;
58621;SDS011;44389;51.578;5.456;2022-07-18T13:50:20;6.90;;;1.97;;
58621;SDS011;44389;51.578;5.456;2022-07-18T13:52:45;7.13;;;2.43;;
58621;SDS011;44389;51.578;5.456;2022-07-18T13:55:10;8.80;;;2.83;;
58621;SDS011;44389;51.578;5.456;2022-07-18T13:57:36;7.28;;;2.08;;
58621;SDS011;44389;51.578;5.456;2022-07-18T14:00:03;8.82;;;2.15;;
58621;SDS011;44389;51.578;5.456;2022-07-18T14:02:31;11.88;;;2.50;;
58621;SDS011;44389;51.578;5.456;2022-07-18T14:04:57;6.95;;;2.17;;
58621;SDS011;44389;51.578;5.456;2022-07-18T14:07:22;7.87;;;2.57;;
58621;SDS011;44389;51.578;5.456;2022-07-18T14:09:47;16.30;;;2.70;;
58621;SDS011;44389;51.578;5.456;2022-07-18T14:12:12;8.43;;;2.37;;
58621;SDS011;44389;51.578;5.456;2022-07-18T14:14:38;9.03;;;1.93;;
58621;SDS011;44389;51.578;5.456;2022-07-18T14:17:03;13.50;;;2.77;;
58621;SDS011;44389;51.578;5.456;2022-07-18T14:19:28;5.83;;;1.97;;
58621;SDS011;44389;51.578;5.456;2022-07-18T14:21:53;9.33;;;2.23;;
58621;SDS011;44389;51.578;5.456;2022-07-18T14:24:19;14.33;;;2.73;;
58621;SDS011;44389;51.578;5.456;2022-07-18T14:26:44;16.07;;;2.50;;
58621;SDS011;44389;51.578;5.456;2022-07-18T14:29:09;14.67;;;2.83;;
58621;SDS011;44389;51.578;5.456;2022-07-18T14:31:35;8.70;;;2.57;;
58621;SDS011;44389;51.578;5.456;2022-07-18T14:34:00;4.57;;;1.97;;
58621;SDS011;44389;51.578;5.456;2022-07-18T14:36:25;8.40;;;2.33;;
58621;SDS011;44389;51.578;5.456;2022-07-18T14:38:51;9.23;;;2.40;;
58621;SDS011;44389;51.578;5.456;2022-07-18T14:41:16;19.60;;;3.33;;
58621;SDS011;44389;51.578;5.456;2022-07-18T14:43:41;7.57;;;2.27;;
58621;SDS011;44389;51.578;5.456;2022-07-18T14:46:07;10.30;;;2.53;;
58621;SDS011;44389;51.578;5.456;2022-07-18T14:48:32;6.60;;;2.37;;
58621;SDS011;44389;51.578;5.456;2022-07-18T14:50:57;4.10;;;2.00;;
58621;SDS011;44389;51.578;5.456;2022-07-18T14:53:23;6.05;;;1.98;;
58621;SDS011;44389;51.578;5.456;2022-07-18T14:55:48;5.80;;;2.20;;
58621;SDS011;44389;51.578;5.456;2022-07-18T14:58:13;9.13;;;2.60;;
58621;SDS011;44389;51.578;5.456;2022-07-18T15:00:39;9.37;;;2.43;;